Rio Grande, Argentina
Current Conditions -  °F | °C
As of 7:00 PM on Friday 19 Dec 2014 (Local Time) from SAWE Reporting Station
Scattered Clouds Scattered Clouds  
Wind Chill: 52°   Ceiling: Unl
Heat Index: 52°   Visibility: 6mi
Dew Point: 39°   Wind: 12mph
Humidity: 62%   Direction: 140°SE
Pressure: 29.03"   Gusts: NA
Location:  53.78°S, 67.75°W
Report Text: SAWE 192200Z 14010KT 9999 SCT017 SCT05011/04 Q0983
Loading
Personal Weather Stations






























Interactive Weather Map New forecast layout! Learn more

10-Day Weather Forecast

Advertisements
Track Severe Weather on mobile